Time;durP1;ratioP1;P1;durP2;ratioP2;P2;SDS_P1;SDS_P2;PMS_P1;PMS_P2;Temp;Humidity;BMP_temperature;BMP_pressure;BME280_temperature;BME280_humidity;BME280_pressure;Samples;Min_cycle;Max_cycle;Signal;HPM_P1;HPM_P2
2023/10/17 00:02:00;;;;;;;3.80;1.90;;;;;;;;;;4974597;28;20275;-79
2023/10/17 00:04:27;;;;;;;4.18;1.90;;;;;;;;;;4977456;28;20407;-80
2023/10/17 00:07:02;;;;;;;4.20;2.10;;;;;;;;;;4964723;28;20061;-78
2023/10/17 00:09:29;;;;;;;4.32;1.90;;;;;;;;;;4977133;28;20050;-79
2023/10/17 00:14:29;;;;;;;13.35;2.03;;;;;;;;;;4960958;28;20059;-78
2023/10/17 00:16:57;;;;;;;4.90;1.98;;;;;;;;;;4973618;28;20022;-79
2023/10/17 00:19:26;;;;;;;4.45;2.05;;;;;;;;;;4977790;28;20092;-80
2023/10/17 00:21:52;;;;;;;3.65;1.85;;;;;;;;;;4973804;28;20081;-79
2023/10/17 00:24:19;;;;;;;3.45;1.70;;;;;;;;;;4968690;28;20567;-80
2023/10/17 00:26:47;;;;;;;4.68;2.20;;;;;;;;;;4965281;28;20023;-78
2023/10/17 00:29:13;;;;;;;3.42;1.70;;;;;;;;;;4956300;28;20653;-79
2023/10/17 00:31:39;;;;;;;3.83;1.70;;;;;;;;;;4969715;28;20034;-79
2023/10/17 00:34:15;;;;;;;4.55;2.00;;;;;;;;;;4970337;28;20041;-82
2023/10/17 00:44:39;;;;;;;2.72;1.83;;;;;;;;;;4978011;28;20030;-78
2023/10/17 00:47:08;;;;;;;3.63;1.80;;;;;;;;;;4971829;28;20098;-79
2023/10/17 00:49:42;;;;;;;3.65;1.80;;;;;;;;;;4975087;28;20367;-79
2023/10/17 00:52:32;;;;;;;6.07;2.03;;;;;;;;;;4978868;28;20105;-79
2023/10/17 00:54:59;;;;;;;5.35;1.90;;;;;;;;;;4979754;28;20459;-79
2023/10/17 00:57:26;;;;;;;4.72;2.00;;;;;;;;;;4973628;28;20204;-79
2023/10/17 00:59:54;;;;;;;3.97;1.90;;;;;;;;;;4977457;28;20034;-79
2023/10/17 01:02:22;;;;;;;3.80;1.80;;;;;;;;;;4981906;28;20061;-80
2023/10/17 01:04:48;;;;;;;4.88;1.92;;;;;;;;;;4974113;28;20038;-79
2023/10/17 01:07:23;;;;;;;5.75;1.90;;;;;;;;;;4975474;28;20090;-80
2023/10/17 01:09:51;;;;;;;3.63;1.90;;;;;;;;;;4980156;28;20026;-80
2023/10/17 01:12:20;;;;;;;3.83;2.13;;;;;;;;;;4973935;28;20113;-79
2023/10/17 01:14:46;;;;;;;4.35;2.10;;;;;;;;;;4983765;28;20622;-79
2023/10/17 01:17:16;;;;;;;5.43;1.85;;;;;;;;;;4978470;28;20029;-79
2023/10/17 01:19:42;;;;;;;6.45;2.00;;;;;;;;;;4983062;28;20345;-80
2023/10/17 01:22:08;;;;;;;4.03;1.70;;;;;;;;;;4981714;28;20033;-79
2023/10/17 01:24:34;;;;;;;7.10;2.33;;;;;;;;;;4982062;28;20086;-79
2023/10/17 01:27:06;;;;;;;4.13;2.00;;;;;;;;;;4966147;28;20031;-79
2023/10/17 01:29:31;;;;;;;4.13;1.80;;;;;;;;;;4980094;28;20042;-81
2023/10/17 01:31:59;;;;;;;3.40;1.90;;;;;;;;;;4968559;28;20045;-80
2023/10/17 01:34:25;;;;;;;5.05;2.28;;;;;;;;;;4980015;28;20053;-78
2023/10/17 01:36:50;;;;;;;4.53;1.98;;;;;;;;;;4985471;28;20112;-79
2023/10/17 01:39:16;;;;;;;4.03;1.80;;;;;;;;;;4971381;28;20124;-81
2023/10/17 01:41:43;;;;;;;5.68;1.92;;;;;;;;;;4984395;28;20073;-81
2023/10/17 01:44:09;;;;;;;4.82;1.83;;;;;;;;;;4972495;28;20173;-80
2023/10/17 01:46:37;;;;;;;3.28;1.85;;;;;;;;;;4979023;28;20692;-79
2023/10/17 01:49:10;;;;;;;4.55;2.17;;;;;;;;;;4968693;28;20034;-80
2023/10/17 01:51:36;;;;;;;2.95;1.88;;;;;;;;;;4975314;28;20109;-80
2023/10/17 01:54:07;;;;;;;3.75;1.90;;;;;;;;;;4979910;28;20025;-80
2023/10/17 01:56:32;;;;;;;5.35;2.13;;;;;;;;;;4993597;28;20026;-80
2023/10/17 01:59:09;;;;;;;4.28;2.00;;;;;;;;;;4987090;28;20021;-79
2023/10/17 02:01:36;;;;;;;4.03;2.28;;;;;;;;;;4977507;28;20062;-81
2023/10/17 02:04:03;;;;;;;5.28;2.70;;;;;;;;;;4976189;28;20187;-79
2023/10/17 02:06:30;;;;;;;4.85;2.75;;;;;;;;;;4971801;28;20391;-79
2023/10/17 02:08:58;;;;;;;7.13;3.22;;;;;;;;;;4974340;28;20045;-79
2023/10/17 02:11:24;;;;;;;8.93;3.10;;;;;;;;;;4974435;28;20041;-80
2023/10/17 02:13:52;;;;;;;6.70;3.50;;;;;;;;;;4977830;28;20022;-79
2023/10/17 02:16:17;;;;;;;15.93;5.30;;;;;;;;;;4975072;28;20026;-79
2023/10/17 02:18:44;;;;;;;9.77;4.97;;;;;;;;;;4972695;28;20033;-80
2023/10/17 02:21:12;;;;;;;6.20;3.60;;;;;;;;;;4974378;28;20037;-80
2023/10/17 02:23:43;;;;;;;6.95;3.47;;;;;;;;;;4979040;28;20026;-79
2023/10/17 02:26:10;;;;;;;6.22;2.85;;;;;;;;;;4964657;28;20034;-80
2023/10/17 02:28:54;;;;;;;4.97;2.55;;;;;;;;;;4971957;28;20056;-80
2023/10/17 02:31:29;;;;;;;3.97;2.50;;;;;;;;;;4968295;28;20030;-79
2023/10/17 02:33:58;;;;;;;4.65;2.50;;;;;;;;;;4971000;28;20034;-80
2023/10/17 02:36:24;;;;;;;4.35;2.10;;;;;;;;;;4974369;28;20492;-80
2023/10/17 02:38:50;;;;;;;7.07;2.72;;;;;;;;;;4964850;28;20062;-79
2023/10/17 02:41:18;;;;;;;4.13;2.28;;;;;;;;;;4975259;28;20644;-80
2023/10/17 02:43:48;;;;;;;6.07;2.38;;;;;;;;;;4989696;28;20338;-80
2023/10/17 02:46:14;;;;;;;4.53;2.03;;;;;;;;;;4967064;28;20649;-79
2023/10/17 02:48:45;;;;;;;3.35;1.95;;;;;;;;;;4971201;28;20029;-80
2023/10/17 02:51:18;;;;;;;4.00;2.22;;;;;;;;;;4956829;28;20419;-80
2023/10/17 02:53:43;;;;;;;4.60;2.17;;;;;;;;;;4966094;28;20040;-80
2023/10/17 02:56:18;;;;;;;4.55;2.13;;;;;;;;;;4962132;28;20038;-79
2023/10/17 02:58:50;;;;;;;;;;;;;;;;;;4961530;28;20037;-80
2023/10/17 03:01:18;;;;;;;4.53;2.47;;;;;;;;;;4963845;28;19913;-79
2023/10/17 03:03:50;;;;;;;5.07;2.30;;;;;;;;;;4978553;28;20034;-80
2023/10/17 03:06:16;;;;;;;5.15;2.30;;;;;;;;;;4962358;28;20026;-80
2023/10/17 03:09:00;;;;;;;4.78;2.40;;;;;;;;;;4969473;28;20014;-79
2023/10/17 03:11:35;;;;;;;4.53;2.35;;;;;;;;;;4975676;28;20466;-79
2023/10/17 03:14:25;;;;;;;6.07;2.38;;;;;;;;;;4968886;28;20030;-78
2023/10/17 03:16:53;;;;;;;6.60;2.50;;;;;;;;;;4973632;28;20038;-79
2023/10/17 03:19:26;;;;;;;4.57;2.28;;;;;;;;;;4967885;28;20030;-79
2023/10/17 03:21:56;;;;;;;4.60;2.63;;;;;;;;;;4970992;28;20450;-79
2023/10/17 03:27:08;;;;;;;5.78;2.80;;;;;;;;;;4969601;28;20053;-79
2023/10/17 03:29:36;;;;;;;5.38;2.55;;;;;;;;;;4968060;28;20042;-80
2023/10/17 03:32:10;;;;;;;5.20;2.50;;;;;;;;;;4963621;28;20022;-78
2023/10/17 03:34:37;;;;;;;5.30;2.70;;;;;;;;;;4978114;28;20045;-80
2023/10/17 03:42:55;;;;;;;7.05;2.30;;;;;;;;;;4976594;28;20049;-81
2023/10/17 03:47:53;;;;;;;5.15;2.60;;;;;;;;;;4970105;28;20030;-79
2023/10/17 03:53:07;;;;;;;4.57;2.38;;;;;;;;;;4968390;28;20034;-79
2023/10/17 03:55:35;;;;;;;5.75;2.50;;;;;;;;;;4962935;28;20809;-80
2023/10/17 03:58:01;;;;;;;7.95;2.40;;;;;;;;;;4963865;28;20026;-78
2023/10/17 04:00:46;;;;;;;5.70;2.42;;;;;;;;;;4969695;28;20058;-79
2023/10/17 04:03:19;;;;;;;4.18;2.40;;;;;;;;;;4971221;28;20030;-80
2023/10/17 04:05:49;;;;;;;6.90;2.55;;;;;;;;;;4974661;28;20350;-80
2023/10/17 04:08:17;;;;;;;12.98;2.88;;;;;;;;;;4975113;28;20057;-79
2023/10/17 04:10:52;;;;;;;13.75;3.75;;;;;;;;;;4979294;28;20028;-80
2023/10/17 04:13:34;;;;;;;10.32;2.70;;;;;;;;;;4976802;28;20030;-78
2023/10/17 04:16:00;;;;;;;9.85;2.92;;;;;;;;;;4971612;28;20031;-78
2023/10/17 04:18:25;;;;;;;15.32;3.25;;;;;;;;;;4964723;28;20039;-79
2023/10/17 04:20:58;;;;;;;16.88;2.88;;;;;;;;;;4976768;28;20035;-79
2023/10/17 04:23:27;;;;;;;15.32;2.78;;;;;;;;;;4974461;28;20520;-79
2023/10/17 04:25:55;;;;;;;8.52;3.17;;;;;;;;;;4966874;28;20034;-79
2023/10/17 04:28:26;;;;;;;6.70;2.60;;;;;;;;;;4967157;28;20026;-80
2023/10/17 04:30:56;;;;;;;7.68;2.83;;;;;;;;;;4971501;28;20034;-79
2023/10/17 04:33:22;;;;;;;6.45;2.67;;;;;;;;;;4969740;28;20129;-78
2023/10/17 04:35:47;;;;;;;12.63;3.03;;;;;;;;;;4970875;28;20078;-80
2023/10/17 04:38:19;;;;;;;11.07;3.15;;;;;;;;;;4976515;28;20018;-80
2023/10/17 04:40:54;;;;;;;8.98;2.92;;;;;;;;;;4972528;28;20560;-80
2023/10/17 04:46:08;;;;;;;7.97;3.00;;;;;;;;;;4968103;28;20106;-78
2023/10/17 04:48:35;;;;;;;14.05;3.03;;;;;;;;;;4975872;28;20031;-78
2023/10/17 04:51:14;;;;;;;22.10;4.63;;;;;;;;;;4976746;28;20113;-79
2023/10/17 04:53:47;;;;;;;22.70;5.22;;;;;;;;;;4983070;28;20361;-81
2023/10/17 04:56:16;;;;;;;12.20;4.40;;;;;;;;;;4976158;28;20702;-80
2023/10/17 06:17:42;;;;;;;22.38;4.53;;;;;;;;;;4974401;28;20037;-81
2023/10/17 06:20:19;;;;;;;9.30;3.20;;;;;;;;;;4972197;28;20031;-80
2023/10/17 06:28:20;;;;;;;11.45;3.70;;;;;;;;;;4961906;28;20108;-79
2023/10/17 06:30:48;;;;;;;10.80;3.83;;;;;;;;;;4969849;28;20095;-81
2023/10/17 06:33:19;;;;;;;13.93;3.97;;;;;;;;;;4967278;28;20029;-80
2023/10/17 06:35:52;;;;;;;10.15;3.92;;;;;;;;;;4968504;28;20019;-81
2023/10/17 06:38:19;;;;;;;9.77;3.63;;;;;;;;;;4963822;28;20029;-80
2023/10/17 06:40:45;;;;;;;12.57;3.85;;;;;;;;;;4958542;28;20112;-80
2023/10/17 06:43:38;;;;;;;8.65;3.72;;;;;;;;;;4964063;28;20033;-81
2023/10/17 06:46:11;;;;;;;16.52;4.50;;;;;;;;;;4963099;28;20039;-81
2023/10/17 06:48:37;;;;;;;11.85;4.45;;;;;;;;;;4965936;28;20037;-83
2023/10/17 06:53:48;;;;;;;13.93;4.53;;;;;;;;;;4960615;28;20030;-81
2023/10/17 06:56:17;;;;;;;12.65;4.60;;;;;;;;;;4960145;28;20117;-81
2023/10/17 06:58:43;;;;;;;10.70;4.05;;;;;;;;;;4970581;28;20032;-80
2023/10/17 07:01:24;;;;;;;13.98;3.88;;;;;;;;;;4960330;28;20018;-81
2023/10/17 07:03:54;;;;;;;10.65;4.00;;;;;;;;;;4966128;28;20030;-80
2023/10/17 07:06:23;;;;;;;10.23;4.05;;;;;;;;;;4970959;28;20038;-80
2023/10/17 07:08:50;;;;;;;10.52;4.18;;;;;;;;;;4969688;28;20033;-81
2023/10/17 07:24:48;;;;;;;7.47;3.83;;;;;;;;;;4984105;28;20049;-80
2023/10/17 07:27:26;;;;;;;6.82;4.00;;;;;;;;;;4955968;28;20098;-80
2023/10/17 07:30:10;;;;;;;11.95;3.88;;;;;;;;;;4960713;28;20653;-79
2023/10/17 07:32:45;;;;;;;8.50;3.50;;;;;;;;;;4958255;28;20039;-79
2023/10/17 07:35:16;;;;;;;6.78;3.45;;;;;;;;;;4970767;28;20279;-81
2023/10/17 07:37:48;;;;;;;6.97;3.60;;;;;;;;;;4994267;28;20022;-80
2023/10/17 07:42:41;;;;;;;9.52;3.80;;;;;;;;;;4980297;28;20022;-83
2023/10/17 07:45:13;;;;;;;6.72;3.53;;;;;;;;;;4970447;28;20022;-82
2023/10/17 07:47:41;;;;;;;9.00;3.58;;;;;;;;;;4974903;28;20172;-82
2023/10/17 07:50:12;;;;;;;8.57;3.90;;;;;;;;;;4969006;28;20030;-82
2023/10/17 07:52:38;;;;;;;7.63;3.35;;;;;;;;;;4972880;28;20101;-81
2023/10/17 07:55:23;;;;;;;8.02;4.20;;;;;;;;;;4965677;28;20101;-80
2023/10/17 07:57:52;;;;;;;9.60;4.00;;;;;;;;;;4961073;28;20074;-80
2023/10/17 08:00:26;;;;;;;9.93;3.80;;;;;;;;;;4964648;28;20847;-82
2023/10/17 08:02:52;;;;;;;11.20;3.78;;;;;;;;;;4974709;28;20023;-80
2023/10/17 08:05:26;;;;;;;8.13;3.92;;;;;;;;;;4966626;28;20035;-80
2023/10/17 08:08:04;;;;;;;7.75;4.00;;;;;;;;;;4961532;28;20023;-82
2023/10/17 08:10:33;;;;;;;9.05;4.38;;;;;;;;;;4958922;28;20061;-82
2023/10/17 08:13:00;;;;;;;10.00;4.35;;;;;;;;;;4960299;28;20081;-81
2023/10/17 08:15:32;;;;;;;8.02;4.05;;;;;;;;;;4953487;28;20022;-82
2023/10/17 08:17:58;;;;;;;8.98;4.55;;;;;;;;;;4970583;28;20022;-82
2023/10/17 08:23:08;;;;;;;8.80;3.92;;;;;;;;;;4965294;28;20056;-82
2023/10/17 08:28:31;;;;;;;8.50;3.78;;;;;;;;;;4960809;28;20017;-82
2023/10/17 08:31:17;;;;;;;8.75;3.97;;;;;;;;;;4961752;28;20061;-82
2023/10/17 08:33:44;;;;;;;6.85;3.92;;;;;;;;;;4970728;28;20041;-82
2023/10/17 08:36:10;;;;;;;7.90;3.42;;;;;;;;;;4963280;28;20030;-83
2023/10/17 08:38:39;;;;;;;6.75;3.50;;;;;;;;;;4976137;28;20046;-81
2023/10/17 08:41:06;;;;;;;6.55;3.53;;;;;;;;;;4971980;28;20410;-82
2023/10/17 08:43:33;;;;;;;7.68;3.50;;;;;;;;;;4983095;28;20234;-82
2023/10/17 08:45:59;;;;;;;6.72;3.50;;;;;;;;;;4977597;28;20194;-81
2023/10/17 08:48:24;;;;;;;24.80;8.43;;;;;;;;;;4980634;28;20049;-82
2023/10/17 08:50:55;;;;;;;7.32;3.42;;;;;;;;;;4985491;28;20041;-80
2023/10/17 08:53:21;;;;;;;5.43;3.42;;;;;;;;;;4982776;28;20041;-81
2023/10/17 08:55:48;;;;;;;5.90;3.25;;;;;;;;;;4988550;28;20038;-81
2023/10/17 08:58:15;;;;;;;11.10;3.70;;;;;;;;;;4974116;28;20022;-82
2023/10/17 09:03:31;;;;;;;5.43;3.65;;;;;;;;;;4978202;28;20054;-82
2023/10/17 09:05:58;;;;;;;9.48;3.30;;;;;;;;;;4979812;28;20030;-81
2023/10/17 09:08:43;;;;;;;8.45;3.42;;;;;;;;;;4972052;28;20030;-82
2023/10/17 09:11:13;;;;;;;6.57;3.30;;;;;;;;;;4989664;28;20110;-83
2023/10/17 09:16:13;;;;;;;8.00;3.33;;;;;;;;;;4971993;28;20026;-84
2023/10/17 09:18:48;;;;;;;6.38;3.38;;;;;;;;;;4971982;28;20034;-83
2023/10/17 09:21:14;;;;;;;6.28;3.20;;;;;;;;;;4972587;28;20026;-84
2023/10/17 09:23:41;;;;;;;7.63;3.30;;;;;;;;;;4971449;28;20042;-84
2023/10/17 09:26:10;;;;;;;6.75;3.40;;;;;;;;;;4969725;28;20491;-82
2023/10/17 09:28:42;;;;;;;7.50;3.30;;;;;;;;;;4966047;28;20102;-83
2023/10/17 09:41:03;;;;;;;7.03;3.20;;;;;;;;;;4985738;23;20100;-82
2023/10/17 09:43:29;;;;;;;8.63;3.40;;;;;;;;;;4953789;28;20034;-83
2023/10/17 09:46:04;;;;;;;8.45;3.40;;;;;;;;;;4970416;28;20029;-82
2023/10/17 09:48:37;;;;;;;8.35;3.55;;;;;;;;;;4971754;28;20034;-84
2023/10/17 09:51:04;;;;;;;8.45;3.85;;;;;;;;;;4965990;28;20154;-81
2023/10/17 09:53:34;;;;;;;6.38;3.40;;;;;;;;;;4971345;28;20042;-85
2023/10/17 09:56:08;;;;;;;7.70;3.20;;;;;;;;;;4973157;28;20030;-81
2023/10/17 09:58:37;;;;;;;8.57;3.67;;;;;;;;;;4967362;28;20101;-85
2023/10/17 10:01:13;;;;;;;5.72;3.40;;;;;;;;;;4966598;28;20052;-82
2023/10/17 10:03:41;;;;;;;7.43;3.50;;;;;;;;;;4974184;28;20061;-83
2023/10/17 10:06:26;;;;;;;8.68;3.28;;;;;;;;;;4966463;28;20603;-84
2023/10/17 10:09:16;;;;;;;7.47;3.25;;;;;;;;;;4977285;28;20538;-83
2023/10/17 10:11:53;;;;;;;9.18;3.58;;;;;;;;;;4968515;28;20033;-82
2023/10/17 10:14:35;;;;;;;5.78;3.58;;;;;;;;;;4970415;28;20077;-83
2023/10/17 10:17:04;;;;;;;8.20;3.45;;;;;;;;;;4969707;28;20026;-82
2023/10/17 10:19:42;;;;;;;8.05;3.40;;;;;;;;;;4971419;28;20026;-82
2023/10/17 10:22:10;;;;;;;14.07;3.60;;;;;;;;;;4978325;28;20025;-84
2023/10/17 10:24:36;;;;;;;14.18;3.33;;;;;;;;;;4997051;28;20057;-84
2023/10/17 10:27:08;;;;;;;10.38;3.90;;;;;;;;;;4970151;28;20098;-82
2023/10/17 10:29:34;;;;;;;6.82;3.50;;;;;;;;;;4962970;28;20030;-85
2023/10/17 10:32:07;;;;;;;6.80;3.45;;;;;;;;;;4980076;28;20090;-82
2023/10/17 10:34:37;;;;;;;7.20;3.40;;;;;;;;;;4977286;28;20049;-82
2023/10/17 10:37:08;;;;;;;6.90;3.60;;;;;;;;;;4972194;28;20110;-82
2023/10/17 10:39:35;;;;;;;6.85;3.28;;;;;;;;;;4976254;28;20037;-83
2023/10/17 10:42:01;;;;;;;7.82;3.60;;;;;;;;;;4971293;28;20555;-83
2023/10/17 10:44:27;;;;;;;7.40;3.50;;;;;;;;;;4974620;28;20050;-81
2023/10/17 10:46:54;;;;;;;9.48;4.00;;;;;;;;;;4977088;28;20108;-82
2023/10/17 10:49:30;;;;;;;7.90;3.38;;;;;;;;;;4974463;28;20717;-83
2023/10/17 10:51:58;;;;;;;6.72;3.47;;;;;;;;;;4971561;28;20030;-82
2023/10/17 10:54:59;;;;;;;5.80;3.20;;;;;;;;;;4973751;28;20026;-86
2023/10/17 10:57:28;;;;;;;7.28;3.42;;;;;;;;;;4967709;28;20125;-86
2023/10/17 10:59:54;;;;;;;6.82;3.30;;;;;;;;;;4969638;28;20033;-82
2023/10/17 11:02:20;;;;;;;6.40;3.50;;;;;;;;;;4982360;28;20495;-84
2023/10/17 11:04:47;;;;;;;6.22;3.17;;;;;;;;;;4973396;28;20680;-83
2023/10/17 11:07:23;;;;;;;6.75;3.30;;;;;;;;;;4966753;28;20046;-83
2023/10/17 11:10:03;;;;;;;9.27;3.45;;;;;;;;;;4968798;28;20038;-85
2023/10/17 11:12:28;;;;;;;9.38;3.03;;;;;;;;;;4971178;28;20026;-86
2023/10/17 11:15:11;;;;;;;7.43;3.35;;;;;;;;;;4966674;28;20034;-83
2023/10/17 11:17:38;;;;;;;11.07;3.00;;;;;;;;;;4971002;28;20585;-85
2023/10/17 11:20:16;;;;;;;5.07;3.03;;;;;;;;;;4970181;28;20022;-87
2023/10/17 11:22:42;;;;;;;7.43;3.25;;;;;;;;;;4967007;28;20026;-83
2023/10/17 11:25:26;;;;;;;7.40;2.95;;;;;;;;;;4952826;28;20101;-85
2023/10/17 11:27:56;;;;;;;10.07;3.30;;;;;;;;;;4963148;28;20030;-85
2023/10/17 11:30:32;;;;;;;7.97;3.30;;;;;;;;;;4948817;28;20023;-85
2023/10/17 11:33:05;;;;;;;11.38;3.55;;;;;;;;;;4964301;28;20068;-84
2023/10/17 12:32:58;;;;;;;5.90;2.90;;;;;;;;;;4919703;29;20059;-81
2023/10/17 12:42:21;;;;;;;6.82;2.75;;;;;;;;;;4897310;29;20035;-85
2023/10/17 12:44:47;;;;;;;4.65;2.50;;;;;;;;;;4906330;29;20028;-82
2023/10/17 12:47:12;;;;;;;6.78;2.92;;;;;;;;;;4906513;29;20186;-81
2023/10/17 12:49:39;;;;;;;6.82;2.75;;;;;;;;;;4905530;29;20570;-80
2023/10/17 12:52:05;;;;;;;13.38;2.80;;;;;;;;;;4897112;29;20020;-79
2023/10/17 12:54:30;;;;;;;8.45;2.83;;;;;;;;;;4915715;29;20107;-80
2023/10/17 12:56:56;;;;;;;7.03;3.30;;;;;;;;;;4912532;29;20028;-78
2023/10/17 12:59:21;;;;;;;8.05;2.78;;;;;;;;;;4918302;29;20034;-80
2023/10/17 13:01:48;;;;;;;14.63;3.40;;;;;;;;;;4920250;29;20039;-82
2023/10/17 13:04:14;;;;;;;6.80;2.70;;;;;;;;;;4914502;29;20793;-82
2023/10/17 13:06:41;;;;;;;12.27;2.83;;;;;;;;;;4915179;29;20477;-81
2023/10/17 13:09:07;;;;;;;6.45;2.60;;;;;;;;;;4910917;29;20026;-81
2023/10/17 13:11:32;;;;;;;8.75;2.70;;;;;;;;;;4926259;29;20031;-79
2023/10/17 13:13:58;;;;;;;8.15;2.45;;;;;;;;;;4903201;29;20031;-79
2023/10/17 13:16:26;;;;;;;8.45;2.90;;;;;;;;;;4914113;29;20034;-80
2023/10/17 13:18:55;;;;;;;11.75;2.80;;;;;;;;;;4916855;29;20027;-80
2023/10/17 13:21:20;;;;;;;5.63;2.70;;;;;;;;;;4910845;29;20035;-77
2023/10/17 13:23:46;;;;;;;7.72;2.80;;;;;;;;;;4916616;29;20035;-80
2023/10/17 13:26:12;;;;;;;7.55;2.70;;;;;;;;;;4893914;29;20024;-80
2023/10/17 13:28:38;;;;;;;4.55;2.50;;;;;;;;;;4915161;29;20034;-80
2023/10/17 13:31:15;;;;;;;10.32;2.80;;;;;;;;;;4911837;29;20041;-80
2023/10/17 13:33:49;;;;;;;6.07;2.70;;;;;;;;;;4916567;29;20039;-80
2023/10/17 13:36:18;;;;;;;6.50;2.65;;;;;;;;;;4930498;29;20023;-80
2023/10/17 13:38:45;;;;;;;6.47;2.65;;;;;;;;;;4925601;29;20031;-80
2023/10/17 13:41:11;;;;;;;8.45;2.60;;;;;;;;;;4910894;29;20754;-81
2023/10/17 13:43:38;;;;;;;6.93;2.47;;;;;;;;;;4900624;29;20435;-80
2023/10/17 13:46:08;;;;;;;5.00;2.65;;;;;;;;;;4888529;29;20031;-81
2023/10/17 13:48:34;;;;;;;7.93;2.72;;;;;;;;;;4914142;29;20114;-82
2023/10/17 13:51:06;;;;;;;6.38;2.53;;;;;;;;;;4912980;29;20102;-80
2023/10/17 13:53:36;;;;;;;6.20;2.75;;;;;;;;;;4901231;29;20038;-80
2023/10/17 13:56:11;;;;;;;8.32;2.80;;;;;;;;;;4901368;29;20047;-80
2023/10/17 13:58:38;;;;;;;6.25;3.17;;;;;;;;;;4894661;29;20626;-81
2023/10/17 14:01:03;;;;;;;6.50;2.55;;;;;;;;;;4907585;29;20094;-80
2023/10/17 14:03:29;;;;;;;6.63;2.55;;;;;;;;;;4904921;29;20036;-80
2023/10/17 14:05:54;;;;;;;4.95;2.30;;;;;;;;;;4902693;29;20028;-79
2023/10/17 14:08:25;;;;;;;7.38;2.50;;;;;;;;;;4894176;29;20031;-81
2023/10/17 14:10:53;;;;;;;10.50;3.45;;;;;;;;;;4916221;29;20039;-80
2023/10/17 14:13:20;;;;;;;6.50;2.70;;;;;;;;;;4895285;29;20094;-81
2023/10/17 14:15:47;;;;;;;6.82;2.60;;;;;;;;;;4915778;29;20378;-80
2023/10/17 14:18:13;;;;;;;6.53;2.53;;;;;;;;;;4909889;29;20023;-81
2023/10/17 14:20:53;;;;;;;6.68;2.67;;;;;;;;;;4919941;29;20086;-81
2023/10/17 14:23:26;;;;;;;5.43;2.70;;;;;;;;;;4904547;29;20100;-81
2023/10/17 14:26:00;;;;;;;7.53;2.80;;;;;;;;;;4909018;29;20051;-79
2023/10/17 14:28:26;;;;;;;6.65;2.88;;;;;;;;;;4900469;29;20027;-79
2023/10/17 14:30:51;;;;;;;6.78;2.45;;;;;;;;;;4908524;29;20062;-79
2023/10/17 14:33:17;;;;;;;8.52;2.60;;;;;;;;;;4910368;29;20435;-80
2023/10/17 14:35:43;;;;;;;4.93;2.50;;;;;;;;;;4912679;29;20035;-78
2023/10/17 14:38:10;;;;;;;6.57;2.90;;;;;;;;;;4897897;29;20086;-79
2023/10/17 14:40:36;;;;;;;9.18;2.60;;;;;;;;;;4920682;29;20059;-79
2023/10/17 14:43:02;;;;;;;8.98;2.60;;;;;;;;;;4910859;29;20368;-78
2023/10/17 14:45:28;;;;;;;9.80;2.60;;;;;;;;;;4911156;29;20481;-79
2023/10/17 14:47:55;;;;;;;7.70;2.60;;;;;;;;;;4912903;29;20388;-78
2023/10/17 14:50:21;;;;;;;9.93;2.42;;;;;;;;;;4893746;29;20039;-80
2023/10/17 14:52:47;;;;;;;4.72;2.40;;;;;;;;;;4909007;29;20035;-79
2023/10/17 14:55:23;;;;;;;7.78;2.60;;;;;;;;;;4908832;29;20031;-79
2023/10/17 14:57:49;;;;;;;5.18;2.60;;;;;;;;;;4902917;29;20291;-78
2023/10/17 15:00:15;;;;;;;6.45;2.60;;;;;;;;;;4908462;29;20923;-78
2023/10/17 15:02:43;;;;;;;4.50;2.53;;;;;;;;;;4929734;29;20028;-79
2023/10/17 15:05:11;;;;;;;6.32;2.70;;;;;;;;;;4913444;29;20023;-77
2023/10/17 15:07:38;;;;;;;6.10;2.60;;;;;;;;;;4908449;29;20030;-79
2023/10/17 15:10:11;;;;;;;9.00;3.00;;;;;;;;;;4918287;29;20035;-79
2023/10/17 15:12:38;;;;;;;9.48;2.70;;;;;;;;;;4916578;29;20157;-79
2023/10/17 15:15:04;;;;;;;5.35;2.50;;;;;;;;;;4918706;29;20028;-79
2023/10/17 15:17:31;;;;;;;7.03;3.00;;;;;;;;;;4919756;29;20028;-79
2023/10/17 15:19:57;;;;;;;6.25;2.47;;;;;;;;;;4906429;29;20083;-79
2023/10/17 15:22:22;;;;;;;5.95;2.60;;;;;;;;;;4905894;29;20039;-79
2023/10/17 15:24:50;;;;;;;10.57;2.67;;;;;;;;;;4910303;29;20055;-79
2023/10/17 15:27:15;;;;;;;11.30;2.97;;;;;;;;;;4904647;29;20095;-78
2023/10/17 15:29:41;;;;;;;8.43;3.03;;;;;;;;;;4905225;29;20039;-79
2023/10/17 15:32:06;;;;;;;7.70;2.70;;;;;;;;;;4900283;29;20453;-78
2023/10/17 15:34:32;;;;;;;8.45;2.72;;;;;;;;;;4910642;29;20285;-82
2023/10/17 15:36:57;;;;;;;8.38;3.10;;;;;;;;;;4903346;29;20028;-80
2023/10/17 15:39:29;;;;;;;11.63;2.80;;;;;;;;;;4910994;29;20393;-80
2023/10/17 15:41:55;;;;;;;8.57;3.05;;;;;;;;;;4915577;29;20480;-81
2023/10/17 15:44:21;;;;;;;8.45;3.05;;;;;;;;;;4911583;29;20028;-79
2023/10/17 15:46:48;;;;;;;10.30;3.15;;;;;;;;;;4902853;29;20202;-80
2023/10/17 15:49:14;;;;;;;8.50;3.30;;;;;;;;;;4912424;29;20156;-80
2023/10/17 15:51:42;;;;;;;8.02;2.92;;;;;;;;;;4910750;29;20512;-80
2023/10/17 15:54:09;;;;;;;8.02;3.10;;;;;;;;;;4908955;29;20024;-80
2023/10/17 15:56:34;;;;;;;8.88;3.67;;;;;;;;;;4927311;29;20024;-79
2023/10/17 15:59:01;;;;;;;7.97;3.70;;;;;;;;;;4915675;29;20095;-80
2023/10/17 16:01:26;;;;;;;8.50;3.10;;;;;;;;;;4920781;29;20035;-81
2023/10/17 16:03:52;;;;;;;6.18;3.08;;;;;;;;;;4912680;29;20023;-80
2023/10/17 16:06:18;;;;;;;5.93;3.10;;;;;;;;;;4912839;29;20015;-81
2023/10/17 16:08:45;;;;;;;6.45;2.90;;;;;;;;;;4918889;29;20098;-79
2023/10/17 16:11:11;;;;;;;7.68;3.10;;;;;;;;;;4918078;29;20751;-79
2023/10/17 16:13:38;;;;;;;9.93;3.03;;;;;;;;;;4916625;29;20043;-80
2023/10/17 16:16:06;;;;;;;7.28;3.20;;;;;;;;;;4916425;29;20110;-80
2023/10/17 16:18:32;;;;;;;6.38;3.20;;;;;;;;;;4916752;29;20099;-80
2023/10/17 16:20:58;;;;;;;11.50;3.53;;;;;;;;;;4914087;29;20020;-81
2023/10/17 16:23:24;;;;;;;6.20;3.00;;;;;;;;;;4920782;29;20031;-80
2023/10/17 16:26:00;;;;;;;7.32;3.30;;;;;;;;;;4911300;29;20102;-80
2023/10/17 16:28:26;;;;;;;8.68;3.20;;;;;;;;;;4904551;29;20500;-81
2023/10/17 16:30:52;;;;;;;7.20;3.30;;;;;;;;;;4914433;29;20052;-80
2023/10/17 16:33:17;;;;;;;11.25;4.40;;;;;;;;;;4889167;29;20048;-80
2023/10/17 16:35:44;;;;;;;8.35;3.40;;;;;;;;;;4908532;29;20509;-80
2023/10/17 16:38:21;;;;;;;7.32;3.22;;;;;;;;;;4913302;29;20032;-81
2023/10/17 16:40:47;;;;;;;7.55;3.10;;;;;;;;;;4915489;29;20023;-80
2023/10/17 16:43:13;;;;;;;4.93;2.80;;;;;;;;;;4911180;29;20067;-78
2023/10/17 16:45:38;;;;;;;7.70;3.00;;;;;;;;;;4914950;29;20129;-85
2023/10/17 16:48:05;;;;;;;7.57;3.00;;;;;;;;;;4920597;29;20484;-83
2023/10/17 16:50:30;;;;;;;9.10;3.10;;;;;;;;;;4929800;29;20028;-83
2023/10/17 16:52:56;;;;;;;7.80;3.00;;;;;;;;;;4899263;29;20229;-80
2023/10/17 16:55:22;;;;;;;6.60;3.25;;;;;;;;;;4923963;29;20038;-84
2023/10/17 16:57:47;;;;;;;8.77;3.30;;;;;;;;;;4918414;29;20033;-81
2023/10/17 17:00:13;;;;;;;8.73;3.08;;;;;;;;;;4910033;29;20137;-82
2023/10/17 17:02:54;;;;;;;9.48;3.30;;;;;;;;;;4904574;29;20099;-81
2023/10/17 17:05:20;;;;;;;8.30;3.20;;;;;;;;;;4909834;29;20039;-80
2023/10/17 17:07:45;;;;;;;8.43;3.45;;;;;;;;;;4930558;29;20043;-81
2023/10/17 17:10:14;;;;;;;6.40;3.10;;;;;;;;;;4924630;29;20020;-80
2023/10/17 17:12:45;;;;;;;9.63;3.45;;;;;;;;;;4935480;29;20035;-81
2023/10/17 17:15:13;;;;;;;10.48;3.60;;;;;;;;;;4910752;29;20038;-81
2023/10/17 17:17:43;;;;;;;8.15;3.30;;;;;;;;;;4908739;29;20111;-82
2023/10/17 17:20:13;;;;;;;6.47;3.20;;;;;;;;;;4905374;29;20028;-80
2023/10/17 17:22:39;;;;;;;11.65;3.50;;;;;;;;;;4908981;29;20102;-81
2023/10/17 17:25:06;;;;;;;11.18;3.63;;;;;;;;;;4905564;29;20119;-80
2023/10/17 17:27:35;;;;;;;7.88;4.15;;;;;;;;;;4913583;29;20030;-82
2023/10/17 17:30:07;;;;;;;11.82;4.50;;;;;;;;;;4891455;29;20040;-76
2023/10/17 17:32:33;;;;;;;9.55;4.20;;;;;;;;;;4909222;29;20063;-78
2023/10/17 17:34:59;;;;;;;9.18;3.50;;;;;;;;;;4909925;29;20063;-76
2023/10/17 17:37:26;;;;;;;10.40;3.72;;;;;;;;;;4910627;29;20068;-78
2023/10/17 17:39:51;;;;;;;11.05;3.88;;;;;;;;;;4912726;29;20026;-76
2023/10/17 17:42:17;;;;;;;7.80;4.03;;;;;;;;;;4893252;29;20020;-77
2023/10/17 17:44:42;;;;;;;7.25;3.40;;;;;;;;;;4906827;29;20050;-77
2023/10/17 17:47:08;;;;;;;8.63;3.53;;;;;;;;;;4917824;29;20032;-78
2023/10/17 17:49:33;;;;;;;7.80;3.67;;;;;;;;;;4894697;29;20036;-78
2023/10/17 17:51:58;;;;;;;8.52;3.83;;;;;;;;;;4910134;29;20035;-78
2023/10/17 17:54:24;;;;;;;9.65;3.80;;;;;;;;;;4909175;29;20036;-77
2023/10/17 17:56:49;;;;;;;8.57;3.78;;;;;;;;;;4913489;29;20043;-76
2023/10/17 17:59:14;;;;;;;7.95;3.78;;;;;;;;;;4912765;29;20512;-77
2023/10/17 18:01:40;;;;;;;11.73;4.00;;;;;;;;;;4919321;29;20031;-79
2023/10/17 18:04:05;;;;;;;8.73;3.90;;;;;;;;;;4906830;29;20023;-76
2023/10/17 18:06:31;;;;;;;6.32;3.60;;;;;;;;;;4918197;29;20130;-76
2023/10/17 18:08:58;;;;;;;8.70;4.30;;;;;;;;;;4912008;29;20027;-75
2023/10/17 18:11:26;;;;;;;9.90;4.30;;;;;;;;;;4912174;29;20031;-78
2023/10/17 18:13:51;;;;;;;12.05;4.20;;;;;;;;;;4918867;29;20039;-75
2023/10/17 18:16:17;;;;;;;8.38;3.83;;;;;;;;;;4917411;29;20035;-77
2023/10/17 18:18:43;;;;;;;9.13;4.22;;;;;;;;;;4901665;29;20401;-76
2023/10/17 18:21:12;;;;;;;8.27;4.00;;;;;;;;;;4890825;29;20808;-76
2023/10/17 18:23:39;;;;;;;10.63;4.00;;;;;;;;;;4918697;29;20043;-77
2023/10/17 18:26:06;;;;;;;9.52;4.05;;;;;;;;;;4913478;29;20911;-76
2023/10/17 18:28:35;;;;;;;9.35;4.25;;;;;;;;;;4892781;29;20059;-77